Tuesday, June 19, 2018, 4:02 PM EDT
Back to Local

KAGC, Pittsburgh Allegheny Cty.

Location: West Mifflin, PA, United States Lat: 40.35
Local Time: 4:02 PM EDT (20:02 GMT) Lon: -79.917
Time Zone: US/Eastern Elev: 1253 ft

Show me the last for .
Show Decoded

2018-06-19 14:53 METAR KAGC 191853Z 10SM BKN048 26/21 A2993 RMK AO2 SLP130 T02610206 =
2018-06-19 13:53 METAR KAGC 191753Z 32010G16KT 10SM SCT025 BKN035 OVC050 25/21 A2995 RMK AO2
                 SLP134 60005 T02500211 10267 20222 58000 =
2018-06-19 13:38 METAR KAGC 191738Z 32007KT 10SM FEW019 SCT029 OVC043 26/22 A2995 RMK AO2
                 T02610222 =
2018-06-19 12:53 METAR KAGC 191653Z 34006KT 10SM FEW017 BKN023 OVC048 26/22 A2996 RMK AO2 SLP137
                 T02560222 =
2018-06-19 12:44 METAR KAGC 191644Z 31006KT 10SM SCT017 BKN024 OVC049 25/22 A2995 RMK AO2
                 T02500222 =
2018-06-19 11:53 METAR KAGC 191553Z 34006G16KT 10SM SCT034 BKN050 24/22 A2995 RMK AO2 LTG DSNT SE
                 RAE36 SLP134 P0001 T02440222 =
2018-06-19 11:33 METAR KAGC 191533Z 34008KT 3SM -RA BR FEW025 BKN030 OVC036 23/22 A2995 RMK AO2
                 P0001 T02330222 =
2018-06-19 11:15 METAR KAGC 191515Z 33005KT 3SM -RA BR FEW007 FEW013 OVC025 23/23 A2995 RMK AO2
                 P0001 T02280228 =
2018-06-19 11:05 METAR KAGC 191505Z 35007KT 2SM -RA BR SCT006 BKN013 OVC025 23/22 A2995 RMK AO2
                 P0001 T02280222 =
2018-06-19 10:57 METAR KAGC 191457Z 35007KT 3SM -RA BR FEW006 SCT013 OVC023 22/22 A2995 RMK AO2
                 P0001 T02220222 =
2018-06-19 10:53 METAR KAGC 191453Z 34007KT 2SM R28/4500VP6000FT -RA BR SCT006 BKN013 OVC023
                 23/22 A2995 RMK AO2 RAB28 SLP135 P0004 60004 T02280222 53001 =
2018-06-19 10:48 METAR KAGC 191448Z 33006KT 2SM R28/4000VP6000FT RA BR SCT008 BKN015 OVC022 23/22
                 A2995 RMK AO2 RAB28 P0004 =
2018-06-19 10:37 METAR KAGC 191437Z 31004KT 2SM R28/4000VP6000FT -RA BR OVC020 23/22 A2994 RMK
                 AO2 RAB28 P0002 T02330222 =
2018-06-19 09:53 METAR KAGC 191353Z VRB06KT 10SM BKN015 BKN020 OVC025 24/22 A2994 RMK AO2 SLP132
                 T02440222 =
2018-06-19 08:53 METAR KAGC 191253Z 29004KT 10SM OVC015 24/22 A2994 RMK AO2 RAB13E22 SLP133 P0000
                 T02440222 =
2018-06-19 08:15 METAR KAGC 191215Z VRB03KT 10SM -RA BKN018 OVC037 24/22 A2995 RMK AO2 RAB13
                 P0000 T02390217 =
2018-06-19 07:53 METAR KAGC 191153Z 30006KT 10SM FEW018 OVC037 24/22 A2995 RMK AO2 SLP133
                 T02390217 10267 20233 51007 =
2018-06-19 06:53 METAR KAGC 191053Z 28006KT 10SM BKN035 24/22 A2995 RMK AO2 SLP133 T02390217 =
2018-06-19 05:53 METAR KAGC 190953Z 27003KT 10SM SCT034 24/22 A2993 RMK AO2 SLP126 T02390217 =
2018-06-19 05:16 METAR KAGC 190916Z 00000KT 10SM SCT020 SCT029 24/22 A2992 RMK AO2 T02390222 =
2018-06-19 04:53 METAR KAGC 190853Z 00000KT 10SM FEW017 BKN022 OVC028 24/22 A2992 RMK AO2 SLP125
                 T02440222 51004 =
2018-06-19 04:38 METAR KAGC 190838Z 34004KT 10SM BKN022 BKN027 BKN035 24/22 A2992 RMK AO2
                 T02390222 =
2018-06-19 03:53 METAR KAGC 190753Z 31003KT 10SM FEW039 BKN060 BKN070 26/22 A2992 RMK AO2 SLP124
                 T02560217 =
2018-06-19 02:53 METAR KAGC 190653Z 29005KT 10SM SCT050 BKN070 26/22 A2993 RMK AO2 SLP125
                 T02610217 =
2018-06-19 01:53 METAR KAGC 190553Z 25012KT 10SM BKN065 27/21 A2991 RMK AO2 LTG DSNT N AND NW
                 SLP120 T02670211 10300 20267 58008 =
2018-06-19 00:53 METAR KAGC 190453Z 24011KT 10SM FEW060 27/22 A2992 RMK AO2 LTG DSNT N SLP122
                 T02720217 403220217 =
2018-06-18 23:53 METAR KAGC 190353Z 24011G19KT 10SM SCT050 27/22 A2994 RMK AO2 LTG DSNT NE SLP130
                 T02720217 =
2018-06-18 22:53 METAR KAGC 190253Z 23009KT 10SM CLR 27/22 A2993 RMK AO2 SLP129 T02720217 55001 =
2018-06-18 21:53 METAR KAGC 190153Z 23009KT 10SM CLR 28/22 A2993 RMK AO2 SLP128 T02780217 =
2018-06-18 20:53 METAR KAGC 190053Z 23009KT 10SM CLR 29/21 A2993 RMK AO2 SLP127 T02890211 =
2018-06-18 19:53 METAR KAGC 182353Z 24010KT 10SM CLR 30/22 A2994 RMK AO2 SLP131 T03000217 10322
                 20300 56012 =
2018-06-18 18:53 METAR KAGC 182253Z 25013KT 10SM CLR 31/21 A2995 RMK AO2 SLP133 T03110211 =
2018-06-18 17:53 METAR KAGC 182153Z 23014G21KT 10SM FEW050 32/21 A2995 RMK AO2 PK WND 25026/2114
                 SLP134 T03170211 =
2018-06-18 16:53 METAR KAGC 182053Z 26016G26KT 10SM FEW045 32/21 A2997 RMK AO2 PK WND 26026/2053
                 SLP142 T03170206 58020 =

Support USWX by starting your Amazon purchase here.